Accueil
METAR-TAF:

METAR-TAF

Aéroports :

Aérodrome de Pemba

Pemba, Mozambique

latitude: 12-59S, longitude: 040-32E, altitude: 101 m

Observation

Le bulletin a été fait il y a 39 minutes, à 12:00 UTC
Vent 12 kt de sud/sud-est
Température 28°C
Humidité 58%
Pression 1013 hPa
Visibilité 10 km ou plus
Quelques nuages à une hauteur de 2000 ft

METAR: FQPB 061200Z 16012KT 9999 FEW020 28/19 Q1013

Heure: 14:39 (12:39 UTC)

Prévision

Le bulletin a été fait il y a 2 heures et 39 minutes, à 10:00 UTC
Prévision valable du 06 à 12 UTC au 07 à 12 UTC
Vent 10 kt de ouest/sud-ouest
Visibilité 10 km ou plus
Quelques nuages à une hauteur de 2000 ft
Evoluant progressivement
du 07 à 08 UTC au 07 à 10 UTC
Vent 10 kt de sud avec des rafales jusqu'à 20 kt
Nuages fragmentés à une hauteur de 2000 ft

TAF: FQPB 061000Z 0612/0712 25010KT 9999 FEW020 TX29/0612Z TN20/0703Z BECMG 0708/0710 17010G20KT BKN020

Observations et prévisions météorologiques de plus de 4000 aéroports (messages METAR et TAF).

Les stations disponibles sont représentées par des disques jaunes et rouges sur la carte.

Passer la souris dessus pour voir le nom de la station.

Cliquer dessus pour voir les observations et prévisions météorologiques.

Pour changer de carte: cliquez sur les boutons verts avec une croix noire pour zoomer, sur le bouton vert avec un tiret pour effectuer un zoom arrière, ou sur les flèches vertes pour les cartes adjacentes.


METAR-TAF: